createdAt,value
2018-06-14T10:24:29.926Z,45.98
2018-06-14T10:31:22.661Z,45.91
2018-06-14T10:32:23.427Z,46.17
2018-06-14T10:33:24.198Z,46.52
2018-06-14T10:34:24.972Z,43.59
2018-06-14T10:35:25.743Z,44.37
2018-06-14T10:36:26.537Z,42.86
2018-06-14T10:37:27.306Z,43.52
2018-06-14T10:38:28.077Z,44.00
2018-06-14T10:39:28.848Z,43.78
2018-06-14T10:40:29.617Z,43.96
2018-06-14T10:41:30.420Z,42.86
2018-06-14T10:42:31.189Z,42.62
2018-06-14T10:43:32.001Z,43.64
2018-06-14T10:44:31.733Z,42.78
2018-06-14T10:45:33.501Z,42.55
2018-06-14T10:46:34.306Z,42.97
2018-06-14T10:47:35.070Z,42.55
2018-06-14T10:48:35.839Z,42.34
2018-06-14T10:49:36.614Z,42.83
2018-06-14T10:50:37.386Z,42.58
2018-06-14T10:51:38.179Z,42.77
2018-06-14T10:52:38.949Z,42.73
2018-06-14T10:53:39.726Z,42.44
2018-06-14T10:54:40.494Z,42.61
2018-06-14T10:55:41.272Z,42.63
2018-06-14T10:56:42.061Z,42.73
2018-06-14T10:57:42.832Z,42.78
2018-06-14T10:58:43.606Z,42.57
2018-06-14T10:59:44.378Z,42.92
2018-06-14T11:00:45.151Z,42.86
2018-06-14T11:01:45.950Z,41.82
2018-06-14T11:02:46.720Z,41.53
2018-06-14T11:03:47.496Z,42.81
2018-06-14T11:04:47.266Z,41.26
2018-06-14T11:05:49.037Z,41.97
2018-06-14T11:06:49.836Z,42.40
2018-06-14T11:07:50.608Z,42.58
2018-06-14T11:08:51.558Z,42.62
2018-06-14T11:09:51.256Z,42.41
2018-06-14T11:10:53.032Z,42.87
2018-06-14T11:11:53.822Z,42.97
2018-06-14T11:12:54.595Z,42.44
2018-06-14T11:13:55.499Z,41.97
2018-06-14T11:14:55.212Z,42.86
2018-06-14T11:15:56.981Z,42.94
2018-06-14T11:16:57.777Z,42.45
2018-06-14T11:17:58.548Z,42.78
2018-06-14T11:18:59.328Z,42.96
2018-06-14T11:20:00.089Z,43.69
2018-06-14T11:21:00.859Z,43.58
2018-06-14T11:22:01.657Z,42.71
2018-06-14T11:23:02.437Z,43.41
2018-06-14T11:24:03.204Z,43.48
2018-06-14T11:25:03.980Z,42.17
2018-06-14T11:26:04.745Z,40.74
2018-06-14T11:27:05.544Z,42.82
2018-06-14T11:28:06.314Z,42.02
2018-06-14T11:29:07.107Z,42.55
2018-06-14T11:30:07.877Z,42.64
2018-06-14T11:31:08.648Z,42.82
2018-06-14T11:32:09.454Z,42.53
2018-06-14T11:33:10.221Z,41.62
2018-06-14T11:34:10.992Z,41.58
2018-06-14T11:35:11.766Z,42.32
2018-06-14T11:36:12.542Z,42.71
2018-06-14T11:37:12.348Z,42.34
2018-06-14T12:29:25.528Z,39.78
2018-06-14T12:30:26.320Z,40.58
2018-06-14T12:31:27.090Z,41.70
2018-06-14T12:32:27.861Z,42.63
2018-06-14T12:33:27.633Z,43.38
2018-06-14T12:34:29.407Z,43.57
2018-06-14T12:47:23.200Z,42.04
2018-06-14T12:48:23.991Z,42.15
2018-06-14T12:49:24.760Z,43.06
2018-06-14T12:50:25.531Z,43.20
2018-06-14T13:08:45.202Z,40.54
2018-06-14T13:09:45.997Z,40.93
2018-06-14T13:10:46.769Z,41.67
2018-06-14T13:11:47.537Z,46.29
2018-06-14T13:12:48.316Z,39.35
2018-06-14T13:13:49.081Z,40.38
2018-06-14T13:14:49.876Z,40.77
2018-06-14T13:15:50.716Z,41.42
2018-06-14T13:16:50.422Z,39.79
2018-06-14T13:17:52.199Z,41.25
2018-06-14T13:18:52.969Z,39.73
2018-06-14T13:19:53.767Z,41.19
2018-06-14T13:20:54.540Z,41.93
2018-06-14T13:21:55.310Z,39.79
2018-06-14T13:22:56.080Z,41.99
2018-06-14T13:23:56.853Z,41.65
2018-06-14T13:24:57.651Z,41.48
2018-06-14T13:25:58.420Z,41.97
2018-06-14T13:26:59.192Z,41.75
2018-06-14T13:27:59.967Z,41.83
2018-06-14T13:29:00.740Z,41.72
2018-06-14T13:30:01.530Z,41.66
2018-06-14T13:31:02.305Z,41.81
2018-06-14T13:32:03.077Z,41.58
2018-06-14T13:33:03.851Z,40.79
2018-06-14T13:34:04.623Z,40.18
2018-06-14T13:35:05.417Z,40.06
2018-06-14T13:36:06.196Z,38.66
2018-06-14T13:37:06.967Z,39.21
2018-06-14T13:38:07.739Z,39.82
2018-06-14T13:39:08.514Z,39.12
2018-06-14T13:40:09.309Z,36.95
2018-06-14T13:41:10.080Z,39.64
2018-06-14T13:42:10.861Z,40.11
2018-06-14T13:43:11.637Z,40.10
2018-06-14T13:44:12.404Z,40.07
2018-06-14T13:45:13.200Z,38.08
2018-06-14T13:46:13.975Z,40.08
2018-06-14T13:47:14.751Z,40.11
2018-06-14T13:48:15.529Z,40.14
2018-06-14T13:49:16.352Z,40.34
2018-06-14T13:50:16.130Z,39.83
2018-06-14T13:51:17.863Z,40.07
2018-06-14T13:52:18.636Z,40.09
2018-06-14T13:53:19.406Z,39.65
2018-06-14T13:54:20.412Z,39.48
2018-06-14T13:55:20.219Z,39.51
2018-06-14T13:56:20.917Z,40.26
2018-06-14T13:57:21.695Z,37.15
2018-06-14T13:58:22.486Z,38.04
2018-06-14T13:59:24.255Z,40.62
2018-06-14T14:00:25.053Z,40.79
2018-06-14T14:01:25.906Z,40.56
2018-06-14T14:02:25.594Z,40.32
2018-06-14T14:03:27.407Z,39.70
2018-06-14T14:04:27.152Z,40.52
2018-06-14T14:05:28.948Z,40.59
2018-06-14T14:06:29.771Z,38.46
2018-06-14T14:07:29.492Z,39.43
2018-06-14T14:08:31.265Z,39.01
2018-06-14T14:09:32.040Z,40.46
2018-06-14T14:10:32.833Z,40.41
2018-06-14T14:11:33.605Z,40.04
2018-06-14T14:12:34.377Z,38.09
2018-06-14T14:13:35.147Z,40.50
2018-06-14T14:14:35.991Z,40.74
2018-06-14T14:15:35.717Z,40.03
2018-06-14T14:16:37.491Z,40.19
2018-06-14T14:17:38.260Z,38.96
2018-06-14T14:18:39.036Z,40.67
2018-06-14T14:19:39.806Z,40.07
2018-06-14T14:20:40.602Z,39.47
2018-06-14T14:21:41.374Z,38.90
2018-06-14T14:22:42.148Z,38.29
2018-06-14T14:23:42.920Z,37.69
2018-06-14T14:24:43.694Z,39.05
2018-06-14T14:25:44.489Z,38.68
2018-06-14T14:26:45.260Z,38.88
2018-06-14T14:27:46.039Z,40.03
2018-06-14T14:28:46.804Z,39.83
2018-06-14T14:29:47.577Z,38.15
2018-06-14T14:30:48.376Z,40.61
2018-06-14T14:31:49.147Z,40.31
2018-06-14T14:32:49.922Z,39.53
2018-06-14T14:33:50.700Z,39.92
2018-06-14T14:34:51.473Z,39.25
2018-06-14T14:35:52.270Z,37.97
2018-06-14T14:36:53.039Z,39.42
2018-06-14T14:37:53.811Z,39.22
2018-06-14T14:38:54.584Z,39.70
2018-06-14T14:39:55.353Z,40.32
2018-06-14T14:40:56.155Z,38.04
2018-06-14T14:41:56.924Z,38.16
2018-06-14T14:42:57.703Z,38.30
2018-06-14T14:43:58.470Z,38.43
2018-06-14T14:44:59.244Z,39.16
2018-06-14T14:46:00.040Z,38.16
2018-06-14T14:47:00.812Z,36.91
2018-06-14T14:48:01.588Z,38.63
2018-06-14T14:49:02.360Z,38.88
2018-06-14T14:50:03.131Z,38.03
2018-06-14T14:51:03.930Z,39.10
2018-06-14T14:52:04.702Z,38.19
2018-06-14T14:53:05.537Z,37.68
2018-06-14T14:54:05.245Z,38.71
2018-06-14T14:55:07.084Z,37.87
2018-06-14T14:56:06.825Z,40.02
2018-06-14T14:57:08.600Z,39.24
2018-06-14T14:58:09.373Z,39.37
2018-06-14T14:59:10.144Z,39.65
2018-06-14T15:00:10.919Z,39.35
2018-06-14T15:01:11.711Z,39.76
2018-06-14T15:02:12.494Z,39.09
2018-06-14T15:03:13.268Z,38.75
2018-06-14T15:04:14.043Z,39.90
2018-06-14T15:05:14.820Z,39.15
2018-06-14T15:06:15.997Z,39.39
2018-06-14T15:09:12.588Z,40.10
2018-06-14T15:10:13.365Z,40.24
2018-06-14T15:11:14.131Z,41.36
2018-06-14T15:12:14.926Z,41.20
2018-06-14T15:13:15.701Z,41.26
2018-06-14T15:14:16.513Z,45.33
2018-06-14T15:15:16.246Z,40.54
2018-06-14T15:16:18.017Z,41.18
2018-06-14T15:17:18.814Z,41.88
2018-06-14T15:18:19.587Z,42.14
2018-06-14T15:19:20.360Z,41.82
2018-06-14T15:20:21.133Z,40.38
2018-06-14T15:21:21.918Z,38.93
2018-06-14T15:22:21.698Z,41.07
2018-06-14T15:23:23.470Z,41.25
2018-06-14T15:24:24.239Z,40.45
2018-06-14T15:25:25.011Z,41.27
2018-06-14T15:26:24.786Z,42.37
2018-06-14T15:27:26.576Z,40.30
2018-06-14T15:28:27.374Z,41.21
2018-06-14T15:29:28.124Z,41.56
2018-06-14T15:30:28.898Z,41.21
2018-06-14T15:31:29.668Z,41.51
2018-06-14T15:32:30.465Z,42.35
2018-06-14T15:33:31.235Z,42.54
2018-06-14T15:34:32.009Z,42.47
2018-06-14T15:35:32.779Z,42.97
2018-06-14T15:36:33.552Z,43.51
2018-06-14T15:37:34.349Z,43.42
2018-06-14T15:38:35.119Z,42.47
2018-06-14T15:39:35.895Z,43.05
2018-06-14T15:40:36.671Z,41.93
2018-06-14T15:41:37.441Z,42.49
2018-06-14T15:42:38.246Z,40.63
2018-06-14T15:43:39.008Z,41.65
2018-06-14T15:44:39.785Z,41.42
2018-06-14T15:45:40.556Z,39.96
2018-06-14T15:46:41.329Z,42.75
2018-06-14T15:47:42.125Z,43.66
2018-06-14T15:48:42.896Z,42.80
2018-06-14T15:49:43.669Z,42.67
2018-06-14T15:50:44.441Z,41.47
2018-06-14T15:51:45.219Z,42.13
2018-06-14T15:52:46.017Z,40.78
2018-06-14T15:53:46.785Z,41.54
2018-06-14T15:54:47.559Z,41.37
2018-06-14T15:55:48.331Z,41.20
2018-06-14T15:56:49.105Z,41.12
2018-06-14T15:57:49.917Z,40.86
2018-06-14T15:58:50.696Z,40.90
2018-06-14T15:59:51.465Z,40.35
2018-06-14T16:00:52.256Z,40.76
2018-06-14T16:01:52.011Z,40.64
2018-06-14T16:02:53.809Z,40.57
2018-06-14T16:03:54.584Z,42.25
2018-06-14T16:04:55.362Z,40.46
2018-06-14T16:05:55.125Z,40.99
2018-06-14T16:06:56.898Z,40.65
2018-06-14T16:07:57.692Z,40.79
2018-06-14T16:08:58.465Z,40.84
2018-06-14T16:09:59.240Z,41.02
2018-06-14T16:11:00.016Z,40.84
2018-06-14T16:12:00.785Z,40.60
2018-06-14T16:13:01.584Z,40.87
2018-06-14T16:14:02.357Z,39.55
2018-06-14T16:15:03.131Z,40.67
2018-06-14T16:16:03.902Z,41.26
2018-06-14T16:17:04.676Z,40.39
2018-06-14T16:18:05.476Z,41.73
2018-06-14T16:19:06.252Z,40.86
2018-06-14T16:20:06.021Z,40.66
2018-06-14T16:21:07.812Z,41.08
2018-06-14T16:22:08.569Z,41.00
2018-06-14T16:23:09.358Z,40.79
2018-06-14T16:24:10.137Z,40.97
2018-06-14T16:25:10.905Z,40.92
2018-06-14T16:26:11.676Z,41.12
2018-06-14T16:27:12.450Z,40.93
2018-06-14T16:28:13.247Z,41.68
2018-06-14T16:29:14.019Z,41.47
2018-06-14T16:30:14.788Z,42.07
2018-06-14T16:31:15.565Z,41.91
2018-06-14T16:32:16.338Z,41.14
2018-06-14T16:33:17.143Z,42.30
2018-06-14T16:34:17.910Z,44.67
2018-06-14T16:35:18.682Z,45.56
2018-06-14T16:36:19.458Z,43.55
2018-06-14T16:37:20.305Z,41.46
2018-06-14T16:38:20.021Z,44.18
2018-06-14T16:39:21.796Z,43.53
2018-06-14T16:40:22.579Z,42.85
2018-06-14T16:41:22.343Z,43.55
2018-06-14T16:42:24.115Z,42.56
2018-06-14T16:43:24.915Z,44.48
2018-06-14T16:44:24.706Z,44.27
2018-06-14T16:45:26.462Z,44.14
2018-06-14T16:46:27.234Z,44.10
2018-06-14T16:47:28.006Z,42.61
2018-06-14T16:48:28.806Z,42.81
2018-06-14T16:49:29.582Z,43.25
2018-06-14T16:50:30.352Z,43.45
2018-06-14T16:51:31.123Z,44.15
2018-06-14T16:52:31.907Z,43.87
2018-06-14T16:53:31.691Z,44.16
2018-06-14T16:54:33.463Z,42.97
2018-06-14T16:55:34.239Z,43.57
2018-06-14T16:56:35.008Z,43.54
2018-06-14T16:57:35.783Z,43.13
2018-06-14T16:58:36.580Z,43.93
2018-06-14T16:59:37.352Z,43.88
2018-06-14T17:00:38.126Z,44.03
2018-06-14T17:01:38.896Z,43.69
2018-06-14T17:02:39.674Z,44.63
2018-06-14T17:03:40.472Z,44.09
2018-06-14T17:04:41.599Z,43.54
2018-06-14T17:05:41.784Z,44.54
2018-06-14T17:06:40.966Z,43.82
2018-06-14T17:08:49.331Z,44.19
2018-06-14T17:09:50.103Z,43.74
2018-06-14T17:10:50.874Z,45.57
2018-06-14T17:11:51.644Z,44.94
2018-06-14T17:12:52.416Z,45.80
2018-06-14T17:13:53.216Z,45.39
2018-06-14T17:14:53.984Z,45.07
2018-06-14T17:15:54.805Z,44.62
2018-06-14T17:16:54.529Z,44.93
2018-06-14T17:17:56.300Z,45.34
2018-06-14T17:18:57.097Z,44.75
2018-06-14T17:19:57.863Z,45.50
2018-06-14T17:20:58.643Z,45.59
2018-06-14T17:21:59.412Z,44.85
2018-06-14T17:23:00.183Z,45.76
2018-06-14T17:24:00.988Z,45.80
2018-06-14T17:25:01.754Z,46.33
2018-06-14T17:26:02.528Z,46.27
2018-06-14T17:27:03.295Z,45.99
2018-06-14T17:28:04.074Z,46.46
2018-06-14T17:29:04.869Z,46.00
2018-06-14T17:30:05.638Z,46.76
2018-06-14T17:31:06.406Z,45.89
2018-06-14T17:32:07.178Z,46.22
2018-06-14T17:33:07.951Z,47.17
2018-06-14T17:34:08.748Z,47.31
2018-06-14T17:35:09.521Z,47.69
2018-06-14T17:36:10.313Z,47.52
2018-06-14T17:37:11.063Z,47.38
2018-06-14T17:38:11.835Z,47.76
2018-06-14T17:39:12.630Z,47.67
2018-06-14T17:40:13.402Z,47.65
2018-06-14T17:41:14.344Z,48.04
2018-06-14T17:42:13.945Z,47.70
2018-06-14T17:43:15.775Z,49.11
2018-06-14T17:44:15.518Z,50.58
2018-06-14T17:45:17.285Z,51.57
2018-06-14T17:46:17.118Z,51.20
2018-06-14T17:47:17.836Z,51.20
2018-06-14T17:48:19.608Z,51.52
2018-06-14T17:49:20.403Z,51.92
2018-06-14T17:50:21.176Z,52.68
2018-06-14T17:51:21.954Z,52.62
2018-06-14T17:52:22.722Z,53.62
2018-06-14T17:53:23.537Z,55.08
2018-06-14T17:54:23.286Z,54.66
2018-06-14T17:55:25.060Z,54.21
2018-06-14T17:56:25.846Z,55.34
2018-06-14T17:57:26.604Z,55.89
2018-06-14T17:58:27.372Z,56.35
2018-06-14T17:59:28.171Z,58.22
2018-06-14T18:00:28.945Z,58.14
2018-06-14T18:01:29.723Z,58.24
2018-06-14T18:02:30.486Z,58.11
2018-06-14T18:03:31.263Z,56.84
2018-06-14T18:04:32.062Z,59.27
2018-06-14T18:05:32.830Z,56.01
2018-06-14T18:06:33.631Z,57.47
2018-06-14T18:07:35.080Z,55.46
2018-06-14T18:08:34.149Z,55.88
2018-06-14T18:09:35.944Z,55.55
2018-06-14T18:10:36.713Z,56.21
2018-06-14T18:11:37.484Z,58.97
2018-06-14T18:12:38.256Z,56.14
2018-06-14T18:13:39.029Z,60.68
2018-06-14T18:14:39.823Z,57.50
2018-06-14T18:15:40.594Z,58.13
2018-06-14T18:16:41.372Z,59.10
2018-06-14T18:17:42.146Z,59.79
2018-06-14T18:18:42.921Z,60.62
2018-06-14T18:19:43.709Z,59.28
2018-06-14T18:20:44.481Z,58.37
2018-06-14T18:21:48.104Z,62.26
2018-06-14T18:22:47.830Z,61.75
2018-06-14T18:23:46.604Z,62.22
2018-06-14T18:24:47.398Z,62.27
2018-06-14T18:25:48.170Z,61.52
2018-06-14T18:26:48.942Z,62.30
2018-06-14T18:27:49.714Z,63.83
2018-06-14T18:28:50.494Z,61.86
2018-06-14T18:29:51.339Z,62.19
2018-06-14T18:30:51.055Z,60.72
2018-06-14T18:31:52.825Z,59.90
2018-06-14T18:32:53.669Z,61.31
2018-06-14T18:33:53.369Z,59.42
2018-06-14T18:34:55.165Z,58.85
2018-06-14T18:35:55.936Z,59.15
2018-06-14T18:36:56.711Z,58.90
2018-06-14T18:37:57.495Z,60.73
2018-06-14T18:38:58.252Z,59.57
2018-06-14T18:39:59.046Z,59.05
2018-06-14T18:40:59.817Z,63.59
2018-06-14T18:42:00.589Z,61.88
2018-06-14T18:43:01.362Z,64.27
2018-06-14T18:44:02.132Z,65.68
2018-06-14T18:45:02.929Z,66.86
2018-06-14T18:46:03.698Z,68.48
2018-06-14T18:47:04.472Z,69.04
2018-06-14T18:48:05.246Z,68.21
2018-06-14T18:49:06.023Z,68.74
2018-06-14T18:50:06.815Z,69.21
2018-06-14T18:51:07.586Z,69.06
2018-06-14T18:52:08.359Z,68.19
2018-06-14T18:53:09.132Z,70.59
2018-06-14T18:54:09.901Z,68.66
2018-06-14T18:55:10.700Z,66.26
2018-06-14T18:56:11.470Z,69.35
2018-06-14T18:57:12.244Z,65.88
2018-06-14T18:58:13.024Z,64.60
2018-06-14T18:59:13.795Z,65.10
2018-06-14T19:00:14.594Z,65.80
2018-06-14T19:01:15.392Z,65.79
2018-06-14T19:02:16.137Z,69.26
2018-06-14T19:03:16.912Z,68.89
2018-06-14T19:04:18.039Z,68.61
2018-06-14T19:05:18.247Z,68.23
2018-06-14T19:06:17.422Z,70.50
2018-06-14T19:07:27.586Z,73.08
2018-06-14T19:08:28.357Z,73.34
2018-06-14T19:09:29.126Z,72.81
2018-06-14T19:10:29.920Z,72.65
2018-06-14T19:11:30.691Z,70.54
2018-06-14T19:12:31.461Z,70.64
2018-06-14T19:13:32.233Z,69.79
2018-06-14T19:14:33.003Z,69.54
2018-06-14T19:15:33.808Z,72.33
2018-06-14T19:16:34.572Z,73.05
2018-06-14T19:17:35.411Z,71.21
2018-06-14T19:18:35.113Z,72.37
2018-06-14T19:19:36.885Z,72.31
2018-06-14T19:20:37.683Z,73.05
2018-06-14T19:21:38.455Z,74.37
2018-06-14T19:22:39.251Z,73.39
2018-06-14T19:23:39.002Z,71.64
2018-06-14T19:24:40.770Z,69.97
2018-06-14T19:25:41.560Z,70.65
2018-06-14T19:26:42.334Z,72.09
2018-06-14T19:27:43.101Z,71.35
2018-06-14T19:28:43.873Z,70.78
2018-06-14T19:29:44.645Z,71.82
2018-06-14T19:30:45.438Z,72.62
2018-06-14T19:31:46.211Z,73.00
2018-06-14T19:32:46.982Z,72.20
2018-06-14T19:33:47.753Z,71.76
2018-06-14T19:34:48.527Z,71.75
2018-06-14T19:35:49.328Z,71.95
2018-06-14T19:36:50.095Z,72.18
2018-06-14T19:37:50.870Z,73.40
2018-06-14T19:38:51.637Z,72.47
2018-06-14T19:39:52.406Z,71.78
2018-06-14T19:40:53.201Z,70.82
2018-06-14T19:41:53.972Z,70.73
2018-06-14T19:42:54.746Z,71.76
2018-06-14T19:43:55.524Z,69.75
2018-06-14T19:44:56.287Z,69.42
2018-06-14T19:45:57.083Z,68.83
2018-06-14T19:46:57.850Z,68.98
2018-06-14T19:47:58.664Z,70.88
2018-06-14T19:48:58.394Z,70.28
2018-06-14T19:50:00.164Z,71.43
2018-06-14T19:51:00.963Z,73.33
2018-06-14T19:52:01.746Z,75.09
2018-06-14T19:53:02.516Z,75.79
2018-06-14T19:54:03.288Z,75.30
2018-06-14T19:55:04.061Z,74.29
2018-06-14T19:56:04.855Z,73.42
2018-06-14T19:57:05.623Z,72.34
2018-06-14T19:58:06.396Z,73.39
2018-06-14T19:59:07.165Z,73.07
2018-06-14T20:00:07.949Z,73.68
2018-06-14T20:01:08.744Z,74.77
2018-06-14T20:02:08.508Z,74.51
2018-06-14T20:03:10.278Z,74.73
2018-06-14T20:04:11.046Z,76.19
2018-06-14T20:05:11.818Z,76.64
2018-06-14T20:06:12.614Z,74.05
2018-06-14T20:07:13.383Z,73.41
2018-06-14T20:08:14.157Z,72.08
2018-06-14T20:09:14.940Z,73.01
2018-06-14T20:10:15.708Z,73.62
2018-06-14T20:11:16.503Z,75.90
2018-06-14T20:12:17.275Z,76.03
2018-06-14T20:13:18.046Z,74.40
2018-06-14T20:14:18.851Z,73.44
2018-06-14T20:15:19.591Z,69.24
2018-06-14T20:16:20.386Z,66.66
2018-06-14T20:17:21.160Z,64.97
2018-06-14T20:18:21.930Z,63.70
2018-06-14T20:19:22.703Z,62.79
2018-06-14T20:20:23.473Z,62.07
2018-06-14T20:21:24.273Z,61.40
2018-06-14T20:22:25.049Z,60.85
2018-06-14T20:23:25.819Z,60.47
2018-06-14T20:24:26.594Z,60.11
2018-06-14T20:25:27.367Z,59.71
2018-06-14T20:26:28.159Z,59.51
2018-06-14T20:27:28.933Z,59.45
2018-06-14T20:28:29.703Z,59.22
2018-06-14T20:29:30.474Z,59.07
2018-06-14T20:30:31.252Z,58.87
2018-06-14T20:31:32.043Z,58.69
2018-06-14T20:32:32.817Z,58.53
2018-06-14T20:33:33.590Z,58.42
2018-06-14T20:34:34.362Z,58.36
2018-06-14T20:35:35.136Z,58.27
2018-06-14T20:36:35.928Z,58.24
2018-06-14T20:37:36.699Z,58.15
2018-06-14T20:38:37.473Z,58.51
2018-06-14T20:39:38.247Z,58.03
2018-06-14T20:40:39.018Z,58.12
2018-06-14T20:41:39.825Z,58.34
2018-06-14T20:42:40.596Z,58.36
2018-06-14T20:43:41.404Z,58.32
2018-06-14T20:44:42.139Z,58.29
2018-06-14T20:45:42.912Z,58.30
2018-06-14T20:46:43.710Z,58.25
2018-06-14T20:47:44.485Z,58.24
2018-06-14T20:48:45.296Z,58.28
2018-06-14T20:49:45.037Z,58.18
2018-06-14T20:50:46.803Z,58.24
2018-06-14T20:51:47.665Z,58.30
2018-06-14T20:52:47.374Z,58.31
2018-06-14T20:53:49.141Z,58.27
2018-06-14T20:54:49.915Z,58.31
2018-06-14T20:55:50.687Z,58.39
2018-06-14T20:56:51.484Z,58.51
2018-06-14T20:57:52.256Z,58.57
2018-06-14T20:58:53.027Z,58.69
2018-06-14T20:59:54.158Z,58.72
2018-06-14T21:03:04.502Z,59.25
2018-06-14T21:04:05.271Z,59.24
2018-06-14T21:05:06.111Z,59.21
2018-06-14T21:06:05.811Z,59.19
2018-06-14T21:07:07.607Z,59.10
2018-06-14T21:08:08.378Z,59.03
2018-06-14T21:09:09.150Z,58.98
2018-06-14T21:10:09.921Z,58.92
2018-06-14T21:11:10.695Z,58.81
2018-06-14T21:12:11.486Z,58.73
2018-06-14T21:13:12.256Z,58.59
2018-06-14T21:14:13.030Z,58.58
2018-06-14T21:15:13.804Z,58.56
2018-06-14T21:16:14.573Z,58.52
2018-06-14T21:17:15.368Z,58.48
2018-06-14T21:18:16.140Z,58.47
2018-06-14T21:19:16.910Z,58.36
2018-06-14T21:20:17.682Z,58.32
2018-06-14T21:21:18.454Z,58.27
2018-06-14T21:22:19.253Z,58.20
2018-06-14T21:23:20.022Z,58.23
2018-06-14T21:24:20.793Z,58.17
2018-06-14T21:25:21.568Z,58.15
2018-06-14T21:26:22.340Z,58.13
2018-06-14T21:27:23.135Z,58.13
2018-06-14T21:28:23.906Z,58.03
2018-06-14T21:29:24.677Z,57.97
2018-06-14T21:30:25.449Z,57.93
2018-06-14T21:31:26.225Z,57.84
2018-06-14T21:32:27.024Z,57.78
